createdAt,value
2023-02-24T00:01:40.248Z,101636.09
2023-02-24T00:04:26.383Z,101630.19
2023-02-24T00:07:12.871Z,101617.47
2023-02-24T00:10:00.013Z,101607.13
2023-02-24T00:12:46.981Z,101609.69
2023-02-24T00:15:32.855Z,101597.81
2023-02-24T00:18:18.709Z,101597.97
2023-02-24T00:21:08.110Z,101591.78
2023-02-24T00:23:54.485Z,101591.88
2023-02-24T00:26:41.602Z,101593.00
2023-02-24T00:29:27.696Z,101587.72
2023-02-24T00:32:14.744Z,101583.59
2023-02-24T00:35:00.866Z,101575.75
2023-02-24T00:37:51.149Z,101574.25
2023-02-24T00:40:38.022Z,101570.03
2023-02-24T00:43:25.393Z,101568.22
2023-02-24T00:46:13.903Z,101561.38
2023-02-24T00:48:59.842Z,101567.66
2023-02-24T00:51:46.814Z,101570.09
2023-02-24T00:54:36.059Z,101571.88
2023-02-24T00:57:22.219Z,101573.59
2023-02-24T01:00:16.430Z,101575.28
2023-02-24T01:03:02.474Z,101573.59
2023-02-24T01:05:49.267Z,101573.69
2023-02-24T01:08:36.420Z,101574.44
2023-02-24T01:11:52.129Z,101584.00
2023-02-24T01:14:39.631Z,101571.88
2023-02-24T01:17:26.621Z,101572.25
2023-02-24T01:20:16.998Z,101577.06
2023-02-24T01:23:03.325Z,101570.09
2023-02-24T01:25:49.272Z,101579.69
2023-02-24T01:28:35.276Z,101569.25
2023-02-24T01:31:21.568Z,101564.00
2023-02-24T01:34:12.930Z,101568.31
2023-02-24T01:36:58.567Z,101569.16
2023-02-24T01:39:45.123Z,101562.13
2023-02-24T01:42:32.718Z,101558.00
2023-02-24T01:45:21.277Z,101553.84
2023-02-24T01:48:07.912Z,101552.72
2023-02-24T01:50:55.025Z,101538.84
2023-02-24T01:53:40.700Z,101539.78
2023-02-24T01:56:29.515Z,101531.13
2023-02-24T01:59:16.174Z,101520.63
2023-02-24T02:02:06.786Z,101511.00
2023-02-24T02:04:53.867Z,101498.75
2023-02-24T02:07:41.300Z,101496.94
2023-02-24T02:10:28.869Z,101476.84
2023-02-24T02:13:16.156Z,101477.72
2023-02-24T02:16:17.020Z,101472.50
2023-02-24T02:19:06.918Z,101454.19
2023-02-24T02:22:10.882Z,101444.44
2023-02-24T02:24:59.568Z,101431.66
2023-02-24T02:28:00.486Z,101432.03
2023-02-24T02:30:52.950Z,101424.72
2023-02-24T02:33:52.853Z,101419.66
2023-02-24T02:36:40.330Z,101417.13
2023-02-24T02:39:32.782Z,101411.88
2023-02-24T02:42:24.184Z,101411.00
2023-02-24T02:45:11.019Z,101399.25
2023-02-24T02:47:59.152Z,101380.09
2023-02-24T02:50:49.228Z,101372.03
2023-02-24T02:53:37.401Z,101367.72
2023-02-24T02:56:24.923Z,101360.19
2023-02-24T02:59:12.608Z,101356.44
2023-02-24T03:02:01.114Z,101337.50
2023-02-24T03:04:50.826Z,101335.81
2023-02-24T03:07:40.357Z,101322.09
2023-02-24T03:10:27.574Z,101305.56
2023-02-24T03:13:13.359Z,101282.69
2023-02-24T03:16:01.663Z,101265.31
2023-02-24T03:18:50.813Z,101247.97
2023-02-24T03:21:38.168Z,101239.41
2023-02-24T03:24:27.906Z,101224.88
2023-02-24T03:27:20.053Z,101209.13
2023-02-24T03:30:07.691Z,101198.97
2023-02-24T03:32:54.851Z,101187.53
2023-02-24T03:35:42.405Z,101172.16
2023-02-24T03:38:30.489Z,101166.53
2023-02-24T03:41:18.313Z,101148.34
2023-02-24T03:44:04.627Z,101130.88
2023-02-24T03:46:51.648Z,101131.94
2023-02-24T03:49:38.505Z,101126.66
2023-02-24T03:52:29.387Z,101120.78
2023-02-24T03:55:17.830Z,101108.59
2023-02-24T03:58:08.298Z,101108.03
2023-02-24T04:00:59.752Z,101102.59
2023-02-24T04:03:48.584Z,101103.53
2023-02-24T04:06:44.918Z,101084.56
2023-02-24T04:09:33.253Z,101086.25
2023-02-24T04:12:26.992Z,101087.88
2023-02-24T04:15:21.000Z,101080.16
2023-02-24T04:18:08.052Z,101071.63
2023-02-24T04:20:59.619Z,101071.81
2023-02-24T04:23:46.170Z,101070.88
2023-02-24T04:26:31.859Z,101059.75
2023-02-24T04:29:20.480Z,101047.56
2023-02-24T04:32:08.688Z,101038.75
2023-02-24T04:35:01.786Z,101039.38
2023-02-24T04:37:47.926Z,101025.50
2023-02-24T04:40:36.760Z,101026.66
2023-02-24T04:43:22.896Z,101017.00
2023-02-24T04:46:09.142Z,101007.44
2023-02-24T04:48:57.129Z,100988.97
2023-02-24T04:51:43.157Z,100980.16
2023-02-24T04:54:29.687Z,100970.50
2023-02-24T04:57:15.530Z,100959.34
2023-02-24T05:00:01.295Z,100946.22
2023-02-24T05:02:48.244Z,100937.59
2023-02-24T05:05:36.013Z,100924.28
2023-02-24T05:08:21.876Z,100921.88
2023-02-24T05:11:08.338Z,100911.47
2023-02-24T05:13:54.038Z,100895.88
2023-02-24T05:16:39.901Z,100878.47
2023-02-24T05:19:43.492Z,100871.44
2023-02-24T05:22:30.913Z,100865.44
2023-02-24T05:25:16.760Z,100867.13
2023-02-24T05:28:03.917Z,100857.88
2023-02-24T05:30:49.628Z,100856.81
2023-02-24T05:33:36.036Z,100842.75
2023-02-24T05:36:22.433Z,100834.16
2023-02-24T05:39:12.227Z,100811.47
2023-02-24T05:41:58.421Z,100800.25
2023-02-24T05:44:44.243Z,100787.13
2023-02-24T05:47:30.256Z,100764.47
2023-02-24T05:50:17.555Z,100756.91
2023-02-24T05:53:03.841Z,100728.66
2023-02-24T05:55:50.890Z,100703.28
2023-02-24T05:58:39.165Z,100681.66
2023-02-24T06:01:25.219Z,100651.75
2023-02-24T06:04:10.973Z,100626.56
2023-02-24T06:06:56.738Z,100602.19
2023-02-24T06:09:44.814Z,100586.66
2023-02-24T06:12:33.620Z,100548.88
2023-02-24T06:15:20.084Z,100538.47
2023-02-24T06:18:06.980Z,100510.69
2023-02-24T06:20:53.857Z,100496.50
2023-02-24T06:23:40.165Z,100490.31
2023-02-24T06:26:29.814Z,100480.88
2023-02-24T06:29:18.150Z,100459.16
2023-02-24T06:32:08.728Z,100456.22
2023-02-24T06:34:54.759Z,100443.94
2023-02-24T06:37:41.073Z,100433.44
2023-02-24T06:40:27.035Z,100429.91
2023-02-24T06:43:13.009Z,100422.94
2023-02-24T06:46:00.327Z,100403.56
2023-02-24T06:48:48.020Z,100405.34
2023-02-24T06:51:34.028Z,100400.72
2023-02-24T06:54:20.070Z,100396.41
2023-02-24T06:57:06.267Z,100384.75
2023-02-24T06:59:52.265Z,100378.66
2023-02-24T07:02:39.784Z,100378.66
2023-02-24T07:05:27.278Z,100360.19
2023-02-24T07:08:13.273Z,100367.94
2023-02-24T07:10:59.833Z,100356.84
2023-02-24T07:13:47.105Z,100347.19
2023-02-24T07:16:34.617Z,100334.91
2023-02-24T07:19:22.815Z,100313.81
2023-02-24T07:22:09.917Z,100315.13
2023-02-24T07:25:00.396Z,100302.84
2023-02-24T07:27:47.393Z,100287.94
2023-02-24T07:30:34.158Z,100280.91
2023-02-24T07:33:20.245Z,100278.50
2023-02-24T07:36:09.364Z,100256.25
2023-02-24T07:38:55.404Z,100249.94
2023-02-24T07:41:45.331Z,100245.28
2023-02-24T07:44:31.386Z,100240.03
2023-02-24T07:47:17.198Z,100217.16
2023-02-24T07:50:05.985Z,100212.63
2023-02-24T07:52:53.172Z,100208.31
2023-02-24T07:55:38.856Z,100201.75
2023-02-24T07:58:24.697Z,100192.22
2023-02-24T08:01:17.837Z,100188.31
2023-02-24T08:04:07.900Z,100178.84
2023-02-24T08:06:56.778Z,100175.31
2023-02-24T08:10:03.883Z,100177.94
2023-02-24T08:12:52.531Z,100172.69
2023-02-24T08:15:38.624Z,100165.16
2023-02-24T08:18:28.325Z,100158.00
2023-02-24T08:21:14.138Z,100171.38
2023-02-24T08:24:02.366Z,100180.91
2023-02-24T08:27:04.106Z,100163.38
2023-02-24T08:29:59.838Z,100176.16
2023-02-24T08:32:46.709Z,100196.19
2023-02-24T08:35:35.709Z,100207.13
2023-02-24T08:38:25.923Z,100220.47
2023-02-24T08:41:13.094Z,100247.78
2023-02-24T08:44:02.879Z,100275.13
2023-02-24T08:46:50.116Z,100292.75
2023-02-24T08:49:36.124Z,100322.56
2023-02-24T08:52:21.737Z,100347.63
2023-02-24T08:55:10.578Z,100374.09
2023-02-24T08:58:01.457Z,100400.56
2023-02-24T09:00:49.904Z,100417.88
2023-02-24T09:03:35.946Z,100441.72
2023-02-24T09:06:25.368Z,100454.31
2023-02-24T09:09:18.239Z,100474.13
2023-02-24T09:12:05.763Z,100490.31
2023-02-24T09:14:55.340Z,100503.94
2023-02-24T09:17:49.695Z,100517.59
2023-02-24T09:20:53.511Z,100537.31
2023-02-24T09:23:45.880Z,100548.66
2023-02-24T09:26:43.001Z,100557.47
2023-02-24T09:29:34.762Z,100571.44
2023-02-24T09:32:21.004Z,100583.72
2023-02-24T09:35:08.924Z,100579.97
2023-02-24T09:37:56.826Z,100578.28
2023-02-24T09:40:48.825Z,100582.69
2023-02-24T09:43:44.074Z,100587.72
2023-02-24T09:46:34.743Z,100603.47
2023-02-24T09:49:23.798Z,100604.31
2023-02-24T09:52:17.327Z,100620.88
2023-02-24T09:55:24.919Z,100628.22
2023-02-24T09:58:34.855Z,100648.38
2023-02-24T10:01:33.397Z,100653.84
2023-02-24T10:04:22.977Z,100652.78
2023-02-24T10:07:11.499Z,100662.66
2023-02-24T10:10:19.280Z,100652.56
2023-02-24T10:13:14.713Z,100653.09
2023-02-24T10:16:06.888Z,100657.63
2023-02-24T10:19:00.970Z,100649.41
2023-02-24T10:21:49.609Z,100653.28
2023-02-24T10:24:38.015Z,100644.34
2023-02-24T10:27:26.548Z,100643.09
2023-02-24T10:30:19.642Z,100645.41
2023-02-24T10:33:06.021Z,100653.81
2023-02-24T10:35:54.314Z,100653.22
2023-02-24T10:38:45.271Z,100653.63
2023-02-24T10:41:38.049Z,100665.50
2023-02-24T10:44:26.703Z,100662.34
2023-02-24T10:47:13.285Z,100665.09
2023-02-24T10:49:59.759Z,100656.16
2023-02-24T10:53:11.069Z,100669.91
2023-02-24T10:56:15.150Z,100652.72
2023-02-24T10:59:20.491Z,100656.59
2023-02-24T11:02:24.609Z,100640.09
2023-02-24T11:05:37.920Z,100654.06
2023-02-24T11:08:54.239Z,100630.13
2023-02-24T11:11:54.278Z,100620.66
2023-02-24T11:14:58.532Z,100619.19
2023-02-24T11:17:48.716Z,100599.34
2023-02-24T11:20:47.818Z,100594.53
2023-02-24T11:23:35.503Z,100588.94
2023-02-24T11:26:22.225Z,100581.16
2023-02-24T11:29:13.094Z,100578.03
2023-02-24T11:32:11.563Z,100558.19
2023-02-24T11:35:01.203Z,100544.84
2023-02-24T11:37:47.650Z,100548.22
2023-02-24T11:40:34.031Z,100553.56
2023-02-24T11:43:20.760Z,100543.41
2023-02-24T11:46:09.508Z,100541.28
2023-02-24T11:48:56.890Z,100546.09
2023-02-24T11:51:44.618Z,100539.00
2023-02-24T11:54:31.146Z,100525.88
2023-02-24T11:57:18.814Z,100524.19
2023-02-24T12:00:13.205Z,100514.63
2023-02-24T12:03:02.235Z,100515.50
2023-02-24T12:05:50.068Z,100514.00
2023-02-24T12:08:38.004Z,100509.69
2023-02-24T12:11:27.273Z,100512.97
2023-02-24T12:14:16.015Z,100514.63
2023-02-24T12:17:04.231Z,100502.34
2023-02-24T12:19:52.633Z,100499.53
2023-02-24T12:22:44.614Z,100499.41
2023-02-24T12:25:33.485Z,100499.84
2023-02-24T12:28:23.504Z,100498.69
2023-02-24T12:31:14.293Z,100496.16
2023-02-24T12:34:02.890Z,100497.00
2023-02-24T12:36:52.961Z,100491.97
2023-02-24T12:39:40.254Z,100486.94
2023-02-24T12:42:29.498Z,100488.75
2023-02-24T12:45:17.367Z,100485.41
2023-02-24T12:48:04.831Z,100485.63
2023-02-24T12:50:51.741Z,100475.84
2023-02-24T12:53:39.253Z,100474.16
2023-02-24T12:56:25.853Z,100473.44
2023-02-24T12:59:13.589Z,100472.50
2023-02-24T13:02:00.744Z,100469.88
2023-02-24T13:04:49.862Z,100476.69
2023-02-24T13:07:38.234Z,100462.72
2023-02-24T13:10:29.085Z,100477.31
2023-02-24T13:13:16.391Z,100482.34
2023-02-24T13:16:03.987Z,100473.72
2023-02-24T13:18:49.896Z,100479.41
2023-02-24T13:21:35.557Z,100469.53
2023-02-24T13:24:22.358Z,100473.63
2023-02-24T13:27:14.810Z,100480.66
2023-02-24T13:30:01.382Z,100474.34
2023-02-24T13:32:59.392Z,100467.03
2023-02-24T13:35:45.550Z,100465.03
2023-02-24T13:38:36.629Z,100458.94
2023-02-24T13:41:24.813Z,100468.38
2023-02-24T13:44:27.169Z,100476.47
2023-02-24T13:47:31.011Z,100471.81
2023-02-24T13:50:25.239Z,100473.59
2023-02-24T13:53:18.084Z,100479.91
2023-02-24T13:56:09.738Z,100478.63
2023-02-24T13:59:04.943Z,100483.25
2023-02-24T14:01:51.465Z,100478.94
2023-02-24T14:04:39.298Z,100474.41
2023-02-24T14:07:27.265Z,100477.66
2023-02-24T14:10:15.636Z,100470.41
2023-02-24T14:13:04.659Z,100463.47
2023-02-24T14:15:50.756Z,100457.03
2023-02-24T14:18:37.278Z,100445.19
2023-02-24T14:21:24.302Z,100449.59
2023-02-24T14:24:12.732Z,100453.78
2023-02-24T14:26:58.866Z,100449.03
2023-02-24T14:29:44.970Z,100460.03
2023-02-24T14:32:31.000Z,100451.19
2023-02-24T14:35:21.038Z,100447.84
2023-02-24T14:38:07.048Z,100440.38
2023-02-24T14:40:54.231Z,100430.81
2023-02-24T14:43:41.724Z,100429.03
2023-02-24T14:46:27.780Z,100424.16
2023-02-24T14:49:14.856Z,100413.53
2023-02-24T14:52:01.545Z,100401.00
2023-02-24T14:54:48.890Z,100397.09
2023-02-24T14:57:36.652Z,100395.19
2023-02-24T15:00:24.748Z,100403.06
2023-02-24T15:03:11.885Z,100390.66
2023-02-24T15:05:59.218Z,100388.34
2023-02-24T15:08:46.621Z,100388.88
2023-02-24T15:11:32.767Z,100383.97
2023-02-24T15:14:22.173Z,100388.03
2023-02-24T15:17:09.799Z,100375.03
2023-02-24T15:19:55.723Z,100369.44
2023-02-24T15:22:50.010Z,100377.53
2023-02-24T15:25:43.475Z,100361.19
2023-02-24T15:28:31.592Z,100361.09
2023-02-24T15:31:19.779Z,100357.84
2023-02-24T15:34:06.138Z,100352.25
2023-02-24T15:36:52.308Z,100345.31
2023-02-24T15:39:38.150Z,100344.34
2023-02-24T15:42:28.110Z,100325.38
2023-02-24T15:45:24.568Z,100323.56
2023-02-24T15:48:21.481Z,100325.50
2023-02-24T15:51:07.235Z,100328.13
2023-02-24T15:53:53.049Z,100325.97
2023-02-24T15:56:39.286Z,100318.06
2023-02-24T15:59:25.055Z,100326.19
2023-02-24T16:02:12.991Z,100316.66
2023-02-24T16:05:00.509Z,100324.28
2023-02-24T16:07:46.546Z,100322.63
2023-02-24T16:10:32.543Z,100327.88
2023-02-24T16:13:20.113Z,100314.00
2023-02-24T16:16:06.770Z,100317.38
2023-02-24T16:18:53.343Z,100312.09
2023-02-24T16:21:41.049Z,100310.69
2023-02-24T16:24:26.779Z,100306.84
2023-02-24T16:27:14.142Z,100300.63
2023-02-24T16:29:59.940Z,100296.34
2023-02-24T16:32:45.629Z,100301.34
2023-02-24T16:35:32.110Z,100295.50
2023-02-24T16:38:19.336Z,100295.63
2023-02-24T16:41:05.468Z,100294.66
2023-02-24T16:43:51.393Z,100289.16
2023-02-24T16:46:39.956Z,100289.03
2023-02-24T16:49:25.841Z,100287.75
2023-02-24T16:52:11.948Z,100285.09
2023-02-24T16:55:01.869Z,100288.44
2023-02-24T16:57:47.598Z,100295.50
2023-02-24T17:00:33.380Z,100288.56
2023-02-24T17:03:20.466Z,100287.50
2023-02-24T17:06:06.522Z,100289.28
2023-02-24T17:08:52.874Z,100291.09
2023-02-24T17:11:39.884Z,100299.44
2023-02-24T17:14:25.680Z,100311.63
2023-02-24T17:17:11.985Z,100303.84
2023-02-24T17:19:58.308Z,100308.03
2023-02-24T17:22:44.644Z,100313.53
2023-02-24T17:25:30.922Z,100320.59
2023-02-24T17:28:18.510Z,100329.06
2023-02-24T17:31:05.167Z,100338.75
2023-02-24T17:33:51.091Z,100341.50
2023-02-24T17:36:36.913Z,100350.09
2023-02-24T17:39:22.705Z,100353.44
2023-02-24T17:42:08.543Z,100365.88
2023-02-24T17:44:55.895Z,100363.94
2023-02-24T17:47:41.903Z,100372.47
2023-02-24T17:50:28.106Z,100381.19
2023-02-24T17:53:13.824Z,100381.78
2023-02-24T17:56:03.595Z,100391.47
2023-02-24T17:58:49.703Z,100384.84
2023-02-24T18:01:37.039Z,100396.47
2023-02-24T18:04:22.674Z,100407.84
2023-02-24T18:07:08.567Z,100412.97
2023-02-24T18:09:54.298Z,100408.66
2023-02-24T18:12:40.032Z,100413.94
2023-02-24T18:15:25.905Z,100414.66
2023-02-24T18:18:13.457Z,100418.94
2023-02-24T18:21:02.702Z,100418.94
2023-02-24T18:23:49.570Z,100425.75
2023-02-24T18:26:35.604Z,100428.97
2023-02-24T18:29:21.468Z,100422.06
2023-02-24T18:32:07.486Z,100424.31
2023-02-24T18:34:54.836Z,100425.88
2023-02-24T18:37:40.749Z,100426.47
2023-02-24T18:40:27.979Z,100428.25
2023-02-24T18:43:13.916Z,100432.81
2023-02-24T18:45:59.945Z,100427.56
2023-02-24T18:48:45.972Z,100430.06
2023-02-24T18:51:32.998Z,100434.25
2023-02-24T18:54:20.095Z,100432.44
2023-02-24T18:57:06.247Z,100436.03
2023-02-24T18:59:52.025Z,100425.75
2023-02-24T19:02:37.935Z,100426.59
2023-02-24T19:05:24.956Z,100426.47
2023-02-24T19:08:13.297Z,100418.91
2023-02-24T19:10:59.022Z,100399.56
2023-02-24T19:13:44.815Z,100401.47
2023-02-24T19:16:30.905Z,100401.47
2023-02-24T19:19:17.207Z,100397.16
2023-02-24T19:22:02.873Z,100396.19
2023-02-24T19:24:50.217Z,100393.56
2023-02-24T19:27:36.605Z,100390.94
2023-02-24T19:30:22.600Z,100384.13
2023-02-24T19:33:09.463Z,100389.41
2023-02-24T19:35:58.445Z,100391.19
2023-02-24T19:38:44.477Z,100386.25
2023-02-24T19:41:31.666Z,100391.38
2023-02-24T19:44:17.461Z,100389.72
2023-02-24T19:47:03.634Z,100397.59
2023-02-24T19:49:49.703Z,100393.28
2023-02-24T19:52:35.560Z,100389.84
2023-02-24T19:55:21.247Z,100388.50
2023-02-24T19:58:08.511Z,100378.34
2023-02-24T20:00:54.362Z,100378.72
2023-02-24T20:03:40.671Z,100371.16
2023-02-24T20:06:28.096Z,100372.94
2023-02-24T20:09:15.926Z,100370.31
2023-02-24T20:12:02.178Z,100369.59
2023-02-24T20:14:50.305Z,100369.81
2023-02-24T20:17:36.439Z,100370.53
2023-02-24T20:20:22.829Z,100375.09
2023-02-24T20:23:08.646Z,100375.19
2023-02-24T20:25:54.882Z,100375.44
2023-02-24T20:28:40.968Z,100377.34
2023-02-24T20:31:28.090Z,100377.34
2023-02-24T20:34:16.447Z,100382.59
2023-02-24T20:37:02.081Z,100381.75
2023-02-24T20:39:48.601Z,100393.09
2023-02-24T20:42:34.794Z,100396.44
2023-02-24T20:45:20.500Z,100400.84
2023-02-24T20:48:08.736Z,100394.88
2023-02-24T20:50:54.723Z,100386.06
2023-02-24T20:53:56.142Z,100382.59
2023-02-24T20:56:44.218Z,100390.34
2023-02-24T20:59:30.058Z,100382.34
2023-02-24T21:02:15.872Z,100385.09
2023-02-24T21:05:03.065Z,100377.22
2023-02-24T21:07:49.834Z,100384.38
2023-02-24T21:10:35.723Z,100382.13
2023-02-24T21:13:21.769Z,100392.75
2023-02-24T21:16:09.215Z,100376.28
2023-02-24T21:18:56.212Z,100384.88
2023-02-24T21:21:43.609Z,100363.84
2023-02-24T21:24:30.412Z,100378.53
2023-02-24T21:27:16.480Z,100369.72
2023-02-24T21:30:02.286Z,100362.91
2023-02-24T21:32:48.482Z,100362.19
2023-02-24T21:35:34.580Z,100353.59
2023-02-24T21:38:21.749Z,100363.97
2023-02-24T21:41:09.904Z,100369.09
2023-02-24T21:43:56.091Z,100356.22
2023-02-24T21:46:42.210Z,100358.84
2023-02-24T21:49:28.342Z,100360.50
2023-02-24T21:52:14.835Z,100361.19
2023-02-24T21:55:02.032Z,100366.44
2023-02-24T21:57:48.174Z,100358.66
2023-02-24T22:00:33.896Z,100364.63
2023-02-24T22:03:19.785Z,100373.34
2023-02-24T22:06:06.246Z,100374.06
2023-02-24T22:08:52.473Z,100369.34
2023-02-24T22:11:40.732Z,100367.44
2023-02-24T22:14:26.374Z,100349.16
2023-02-24T22:17:12.175Z,100356.53
2023-02-24T22:19:58.093Z,100357.38
2023-02-24T22:22:44.306Z,100367.78
2023-02-24T22:25:30.125Z,100365.47
2023-02-24T22:28:17.917Z,100361.19
2023-02-24T22:31:04.003Z,100355.22
2023-02-24T22:33:50.447Z,100349.00
2023-02-24T22:36:37.243Z,100351.50
2023-02-24T22:39:23.382Z,100358.56
2023-02-24T22:42:09.408Z,100358.66
2023-02-24T22:44:56.615Z,100361.91
2023-02-24T22:47:42.712Z,100362.84
2023-02-24T22:50:29.040Z,100361.19
2023-02-24T22:53:14.727Z,100359.28
2023-02-24T22:56:00.546Z,100361.91
2023-02-24T22:58:46.937Z,100352.34
2023-02-24T23:01:34.793Z,100357.59
2023-02-24T23:04:20.861Z,100343.50
2023-02-24T23:07:06.968Z,100350.44
2023-02-24T23:09:53.522Z,100345.00
2023-02-24T23:12:39.260Z,100339.44
2023-02-24T23:15:25.127Z,100347.31
2023-02-24T23:18:13.860Z,100344.47
2023-02-24T23:21:00.720Z,100349.72
2023-02-24T23:23:46.938Z,100345.19
2023-02-24T23:26:33.430Z,100341.84
2023-02-24T23:29:19.565Z,100345.19
2023-02-24T23:32:05.434Z,100349.47
2023-02-24T23:34:53.952Z,100349.41
2023-02-24T23:37:40.203Z,100352.75
2023-02-24T23:40:26.452Z,100355.56
2023-02-24T23:43:12.670Z,100362.19
2023-02-24T23:45:58.783Z,100363.25
2023-02-24T23:48:45.618Z,100355.38
2023-02-24T23:51:46.958Z,100357.16
2023-02-24T23:54:33.611Z,100354.66
2023-02-24T23:57:19.644Z,100358.13
